sensor_id;sensor_type;location;lat;lon;timestamp;pressure;altitude;pressure_sealevel;temperature;humidity
7052;BME280;3567;52.444;13.556;2023-02-13T00:00:23;103315.56;;;7.32;100.00
7052;BME280;3567;52.444;13.556;2023-02-13T00:02:49;103319.91;;;7.33;100.00
7052;BME280;3567;52.444;13.556;2023-02-13T00:05:14;103317.22;;;7.33;100.00
7052;BME280;3567;52.444;13.556;2023-02-13T00:07:40;103314.72;;;7.32;100.00
7052;BME280;3567;52.444;13.556;2023-02-13T00:10:06;103315.56;;;7.32;100.00
7052;BME280;3567;52.444;13.556;2023-02-13T00:12:32;103315.56;;;7.32;100.00
7052;BME280;3567;52.444;13.556;2023-02-13T00:14:57;103316.53;;;7.31;100.00
7052;BME280;3567;52.444;13.556;2023-02-13T00:17:24;103310.22;;;7.32;100.00
7052;BME280;3567;52.444;13.556;2023-02-13T00:19:49;103314.72;;;7.32;100.00
7052;BME280;3567;52.444;13.556;2023-02-13T00:22:15;103320.03;;;7.32;100.00
7052;BME280;3567;52.444;13.556;2023-02-13T00:24:41;103319.22;;;7.31;100.00
7052;BME280;3567;52.444;13.556;2023-02-13T00:27:06;103324.38;;;7.33;100.00
7052;BME280;3567;52.444;13.556;2023-02-13T00:29:32;103324.53;;;7.31;100.00
7052;BME280;3567;52.444;13.556;2023-02-13T00:31:57;103323.81;;;7.29;100.00
7052;BME280;3567;52.444;13.556;2023-02-13T00:34:22;103318.81;;;7.26;100.00
7052;BME280;3567;52.444;13.556;2023-02-13T00:36:48;103322.47;;;7.25;100.00
7052;BME280;3567;52.444;13.556;2023-02-13T00:39:13;103318.09;;;7.24;100.00
7052;BME280;3567;52.444;13.556;2023-02-13T00:41:38;103317.25;;;7.24;100.00
7052;BME280;3567;52.444;13.556;2023-02-13T00:44:04;103320.06;;;7.22;100.00
7052;BME280;3567;52.444;13.556;2023-02-13T00:46:29;103318.53;;;7.20;100.00
7052;BME280;3567;52.444;13.556;2023-02-13T00:48:55;103316.97;;;7.17;100.00
7052;BME280;3567;52.444;13.556;2023-02-13T00:51:20;103317.69;;;7.19;100.00
7052;BME280;3567;52.444;13.556;2023-02-13T00:53:45;103323.03;;;7.19;100.00
7052;BME280;3567;52.444;13.556;2023-02-13T00:56:11;103316.00;;;7.18;100.00
7052;BME280;3567;52.444;13.556;2023-02-13T00:58:36;103315.31;;;7.16;100.00
7052;BME280;3567;52.444;13.556;2023-02-13T01:01:03;103317.97;;;7.16;100.00
7052;BME280;3567;52.444;13.556;2023-02-13T01:03:28;103313.63;;;7.15;100.00
7052;BME280;3567;52.444;13.556;2023-02-13T01:05:55;103308.56;;;7.12;100.00
7052;BME280;3567;52.444;13.556;2023-02-13T01:08:20;103313.22;;;7.10;100.00
7052;BME280;3567;52.444;13.556;2023-02-13T01:10:47;103322.19;;;7.09;100.00
7052;BME280;3567;52.444;13.556;2023-02-13T01:13:14;103326.53;;;7.10;100.00
7052;BME280;3567;52.444;13.556;2023-02-13T01:15:40;103328.50;;;7.08;100.00
7052;BME280;3567;52.444;13.556;2023-02-13T01:18:05;103324.31;;;7.05;100.00
7052;BME280;3567;52.444;13.556;2023-02-13T01:20:31;103327.13;;;7.04;100.00
7052;BME280;3567;52.444;13.556;2023-02-13T01:22:57;103321.78;;;7.04;100.00
7052;BME280;3567;52.444;13.556;2023-02-13T01:25:23;103318.28;;;7.03;100.00
7052;BME280;3567;52.444;13.556;2023-02-13T01:27:48;103316.72;;;7.01;100.00
7052;BME280;3567;52.444;13.556;2023-02-13T01:30:15;103318.41;;;7.02;100.00
7052;BME280;3567;52.444;13.556;2023-02-13T01:32:42;103313.22;;;7.00;100.00
7052;BME280;3567;52.444;13.556;2023-02-13T01:35:09;103313.38;;;6.99;100.00
7052;BME280;3567;52.444;13.556;2023-02-13T01:37:35;103317.03;;;6.98;100.00
7052;BME280;3567;52.444;13.556;2023-02-13T01:40:01;103317.03;;;6.98;100.00
7052;BME280;3567;52.444;13.556;2023-02-13T01:42:29;103319.81;;;6.96;100.00
7052;BME280;3567;52.444;13.556;2023-02-13T01:44:57;103308.47;;;6.94;100.00
7052;BME280;3567;52.444;13.556;2023-02-13T01:50:21;103304.97;;;6.94;100.00
7052;BME280;3567;52.444;13.556;2023-02-13T01:52:47;103313.94;;;6.93;100.00
7052;BME280;3567;52.444;13.556;2023-02-13T01:55:14;103304.25;;;6.92;100.00
7052;BME280;3567;52.444;13.556;2023-02-13T01:57:42;103308.63;;;6.93;100.00
7052;BME280;3567;52.444;13.556;2023-02-13T02:00:14;103318.41;;;6.92;100.00
7052;BME280;3567;52.444;13.556;2023-02-13T02:02:43;103314.78;;;6.93;100.00
7052;BME280;3567;52.444;13.556;2023-02-13T02:05:10;103320.22;;;6.92;100.00
7052;BME280;3567;52.444;13.556;2023-02-13T02:07:37;103308.63;;;6.93;100.00
7052;BME280;3567;52.444;13.556;2023-02-13T02:10:07;103308.47;;;6.94;100.00
7052;BME280;3567;52.444;13.556;2023-02-13T02:12:57;103310.28;;;6.94;100.00
7052;BME280;3567;52.444;13.556;2023-02-13T02:15:25;103313.94;;;6.93;100.00
7052;BME280;3567;52.444;13.556;2023-02-13T02:17:51;103312.22;;;6.92;100.00
7052;BME280;3567;52.444;13.556;2023-02-13T02:29:22;103318.13;;;6.86;100.00
7052;BME280;3567;52.444;13.556;2023-02-13T02:32:10;103316.47;;;6.85;100.00
7052;BME280;3567;52.444;13.556;2023-02-13T02:42:57;103325.84;;;6.79;100.00
7052;BME280;3567;52.444;13.556;2023-02-13T02:48:04;103333.00;;;6.78;100.00
7052;BME280;3567;52.444;13.556;2023-02-13T02:51:37;103336.66;;;6.77;100.00
7052;BME280;3567;52.444;13.556;2023-02-13T03:01:38;103333.28;;;6.75;100.00
7052;BME280;3567;52.444;13.556;2023-02-13T03:04:32;103335.94;;;6.75;100.00
7052;BME280;3567;52.444;13.556;2023-02-13T03:07:18;103322.91;;;6.72;100.00
7052;BME280;3567;52.444;13.556;2023-02-13T03:09:59;103321.25;;;6.71;100.00
7052;BME280;3567;52.444;13.556;2023-02-13T03:15:28;103326.56;;;6.71;100.00
7052;BME280;3567;52.444;13.556;2023-02-13T03:17:55;103327.41;;;6.72;100.00
7052;BME280;3567;52.444;13.556;2023-02-13T03:24:32;103324.84;;;6.70;100.00
7052;BME280;3567;52.444;13.556;2023-02-13T03:26:53;103323.19;;;6.69;100.00
7052;BME280;3567;52.444;13.556;2023-02-13T03:32:20;103326.81;;;6.68;100.00
7052;BME280;3567;52.444;13.556;2023-02-13T03:38:37;103330.75;;;6.64;100.00
7052;BME280;3567;52.444;13.556;2023-02-13T03:41:03;103331.16;;;6.60;100.00
7052;BME280;3567;52.444;13.556;2023-02-13T03:46:34;103326.81;;;6.59;100.00
7052;BME280;3567;52.444;13.556;2023-02-13T03:49:03;103326.81;;;6.59;100.00
7052;BME280;3567;52.444;13.556;2023-02-13T03:54:21;103316.47;;;6.55;100.00
7052;BME280;3567;52.444;13.556;2023-02-13T03:57:09;103320.91;;;6.55;100.00
7052;BME280;3567;52.444;13.556;2023-02-13T03:59:56;103323.72;;;6.53;100.00
7052;BME280;3567;52.444;13.556;2023-02-13T04:02:25;103325.28;;;6.56;100.00
7052;BME280;3567;52.444;13.556;2023-02-13T04:05:07;103323.47;;;6.56;100.00
7052;BME280;3567;52.444;13.556;2023-02-13T04:07:33;103327.81;;;6.57;100.00
7052;BME280;3567;52.444;13.556;2023-02-13T04:10:05;103321.63;;;6.57;100.00
7052;BME280;3567;52.444;13.556;2023-02-13T04:12:36;103310.16;;;6.56;100.00
7052;BME280;3567;52.444;13.556;2023-02-13T04:15:19;103314.63;;;6.56;100.00
7052;BME280;3567;52.444;13.556;2023-02-13T04:17:56;103318.13;;;6.56;100.00
7052;BME280;3567;52.444;13.556;2023-02-13T04:20:26;103309.31;;;6.56;100.00
7052;BME280;3567;52.444;13.556;2023-02-13T04:22:52;103313.66;;;6.57;100.00
7052;BME280;3567;52.444;13.556;2023-02-13T04:25:18;103310.97;;;6.57;100.00
7052;BME280;3567;52.444;13.556;2023-02-13T04:27:44;103303.84;;;6.57;100.00
7052;BME280;3567;52.444;13.556;2023-02-13T04:30:10;103314.50;;;6.57;100.00
7052;BME280;3567;52.444;13.556;2023-02-13T04:32:36;103309.31;;;6.56;100.00
7052;BME280;3567;52.444;13.556;2023-02-13T04:35:01;103311.25;;;6.54;100.00
7052;BME280;3567;52.444;13.556;2023-02-13T04:37:26;103305.94;;;6.54;100.00
7052;BME280;3567;52.444;13.556;2023-02-13T04:39:52;103302.72;;;6.50;100.00
7052;BME280;3567;52.444;13.556;2023-02-13T04:42:17;103312.53;;;6.50;100.00
7052;BME280;3567;52.444;13.556;2023-02-13T04:44:42;103301.00;;;6.49;100.00
7052;BME280;3567;52.444;13.556;2023-02-13T04:47:08;103296.66;;;6.48;100.00
7052;BME280;3567;52.444;13.556;2023-02-13T04:49:33;103297.50;;;6.49;100.00
7052;BME280;3567;52.444;13.556;2023-02-13T04:51:58;103305.50;;;6.49;100.00
7052;BME280;3567;52.444;13.556;2023-02-13T04:54:24;103303.81;;;6.48;100.00
7052;BME280;3567;52.444;13.556;2023-02-13T04:56:49;103300.47;;;6.46;100.00
7052;BME280;3567;52.444;13.556;2023-02-13T04:59:14;103296.97;;;6.45;100.00
7052;BME280;3567;52.444;13.556;2023-02-13T05:01:40;103294.31;;;6.45;100.00
7052;BME280;3567;52.444;13.556;2023-02-13T05:04:05;103293.59;;;6.43;100.00
7052;BME280;3567;52.444;13.556;2023-02-13T05:06:31;103293.72;;;6.42;100.00
7052;BME280;3567;52.444;13.556;2023-02-13T05:08:56;103299.06;;;6.42;100.00
7052;BME280;3567;52.444;13.556;2023-02-13T05:11:21;103296.53;;;6.40;100.00
7052;BME280;3567;52.444;13.556;2023-02-13T05:13:47;103301.97;;;6.39;100.00
7052;BME280;3567;52.444;13.556;2023-02-13T05:16:12;103307.19;;;6.40;100.00
7052;BME280;3567;52.444;13.556;2023-02-13T05:18:38;103307.03;;;6.42;100.00
7052;BME280;3567;52.444;13.556;2023-02-13T05:21:03;103307.03;;;6.42;100.00
7052;BME280;3567;52.444;13.556;2023-02-13T05:23:47;103308.03;;;6.41;100.00
7052;BME280;3567;52.444;13.556;2023-02-13T05:26:12;103312.50;;;6.40;100.00
7052;BME280;3567;52.444;13.556;2023-02-13T05:28:38;103306.34;;;6.40;100.00
7052;BME280;3567;52.444;13.556;2023-02-13T05:31:22;103310.25;;;6.36;100.00
7052;BME280;3567;52.444;13.556;2023-02-13T05:33:47;103312.63;;;6.39;100.00
7052;BME280;3567;52.444;13.556;2023-02-13T05:36:12;103311.69;;;6.40;100.00
7052;BME280;3567;52.444;13.556;2023-02-13T05:38:38;103310.94;;;6.38;100.00
7052;BME280;3567;52.444;13.556;2023-02-13T05:41:05;103308.19;;;6.39;100.00
7052;BME280;3567;52.444;13.556;2023-02-13T05:43:30;103312.63;;;6.39;100.00
7052;BME280;3567;52.444;13.556;2023-02-13T05:46:07;103309.00;;;6.40;100.00
7052;BME280;3567;52.444;13.556;2023-02-13T05:48:33;103314.34;;;6.40;100.00
7052;BME280;3567;52.444;13.556;2023-02-13T05:50:58;103315.28;;;6.39;100.00
7052;BME280;3567;52.444;13.556;2023-02-13T05:53:24;103321.50;;;6.39;100.00
7052;BME280;3567;52.444;13.556;2023-02-13T05:55:49;103325.94;;;6.39;100.00
7052;BME280;3567;52.444;13.556;2023-02-13T05:58:19;103320.63;;;6.39;100.00
7052;BME280;3567;52.444;13.556;2023-02-13T06:00:45;103325.00;;;6.40;100.00
7052;BME280;3567;52.444;13.556;2023-02-13T06:03:11;103326.81;;;6.39;100.00
7052;BME280;3567;52.444;13.556;2023-02-13T06:05:36;103333.94;;;6.39;100.00
7052;BME280;3567;52.444;13.556;2023-02-13T06:08:02;103339.25;;;6.39;100.00
7052;BME280;3567;52.444;13.556;2023-02-13T06:10:27;103337.47;;;6.39;100.00
7052;BME280;3567;52.444;13.556;2023-02-13T06:12:53;103334.66;;;6.41;100.00
7052;BME280;3567;52.444;13.556;2023-02-13T06:15:18;103335.63;;;6.40;100.00
7052;BME280;3567;52.444;13.556;2023-02-13T06:17:43;103340.13;;;6.39;100.00
7052;BME280;3567;52.444;13.556;2023-02-13T06:20:09;103336.47;;;6.40;100.00
7052;BME280;3567;52.444;13.556;2023-02-13T06:22:34;103336.47;;;6.40;100.00
7052;BME280;3567;52.444;13.556;2023-02-13T06:25:00;103342.78;;;6.39;100.00
7052;BME280;3567;52.444;13.556;2023-02-13T06:27:25;103336.59;;;6.39;100.00
7052;BME280;3567;52.444;13.556;2023-02-13T06:29:50;103344.72;;;6.37;100.00
7052;BME280;3567;52.444;13.556;2023-02-13T06:32:16;103344.72;;;6.37;100.00
7052;BME280;3567;52.444;13.556;2023-02-13T06:34:41;103336.59;;;6.39;100.00
7052;BME280;3567;52.444;13.556;2023-02-13T06:37:06;103337.47;;;6.39;100.00
7052;BME280;3567;52.444;13.556;2023-02-13T06:39:33;103336.59;;;6.39;100.00
7052;BME280;3567;52.444;13.556;2023-02-13T06:41:58;103334.78;;;6.39;100.00
7052;BME280;3567;52.444;13.556;2023-02-13T06:44:23;103340.97;;;6.40;100.00
7052;BME280;3567;52.444;13.556;2023-02-13T06:46:49;103353.44;;;6.39;100.00
7052;BME280;3567;52.444;13.556;2023-02-13T06:49:14;103348.94;;;6.40;100.00
7052;BME280;3567;52.444;13.556;2023-02-13T06:51:39;103348.09;;;6.39;100.00
7052;BME280;3567;52.444;13.556;2023-02-13T06:54:05;103354.28;;;6.40;100.00
7052;BME280;3567;52.444;13.556;2023-02-13T06:56:30;103358.75;;;6.39;100.00
7052;BME280;3567;52.444;13.556;2023-02-13T06:58:57;103355.94;;;6.41;100.00
7052;BME280;3567;52.444;13.556;2023-02-13T07:01:22;103359.31;;;6.43;100.00
7052;BME280;3567;52.444;13.556;2023-02-13T07:03:47;103364.38;;;6.46;100.00
7052;BME280;3567;52.444;13.556;2023-02-13T07:06:17;103354.56;;;6.46;100.00
7052;BME280;3567;52.444;13.556;2023-02-13T07:08:43;103365.91;;;6.48;100.00
7052;BME280;3567;52.444;13.556;2023-02-13T07:11:16;103364.09;;;6.49;100.00
7052;BME280;3567;52.444;13.556;2023-02-13T07:13:41;103360.56;;;6.48;100.00
7052;BME280;3567;52.444;13.556;2023-02-13T07:16:07;103360.47;;;6.50;100.00
7052;BME280;3567;52.444;13.556;2023-02-13T07:18:32;103368.31;;;6.51;100.00
7052;BME280;3567;52.444;13.556;2023-02-13T07:20:57;103368.31;;;6.51;100.00
7052;BME280;3567;52.444;13.556;2023-02-13T07:23:23;103371.66;;;6.53;100.00
7052;BME280;3567;52.444;13.556;2023-02-13T07:25:48;103375.06;;;6.55;100.00
7052;BME280;3567;52.444;13.556;2023-02-13T07:28:13;103371.41;;;6.56;100.00
7052;BME280;3567;52.444;13.556;2023-02-13T07:30:39;103373.91;;;6.58;100.00
7052;BME280;3567;52.444;13.556;2023-02-13T07:33:04;103368.59;;;6.58;100.00
7052;BME280;3567;52.444;13.556;2023-02-13T07:35:30;103375.59;;;6.59;100.00
7052;BME280;3567;52.444;13.556;2023-02-13T07:37:55;103382.59;;;6.60;100.00
7052;BME280;3567;52.444;13.556;2023-02-13T07:40:21;103380.91;;;6.59;100.00
7052;BME280;3567;52.444;13.556;2023-02-13T07:42:46;103371.94;;;6.60;100.00
7052;BME280;3567;52.444;13.556;2023-02-13T07:45:12;103382.47;;;6.62;100.00
7052;BME280;3567;52.444;13.556;2023-02-13T07:47:39;103378.84;;;6.63;100.00
7052;BME280;3567;52.444;13.556;2023-02-13T07:50:05;103379.66;;;6.63;100.00
7052;BME280;3567;52.444;13.556;2023-02-13T07:52:31;103386.69;;;6.64;100.00
7052;BME280;3567;52.444;13.556;2023-02-13T07:54:57;103385.00;;;6.63;100.00
7052;BME280;3567;52.444;13.556;2023-02-13T07:57:22;103384.16;;;6.63;100.00
7052;BME280;3567;52.444;13.556;2023-02-13T07:59:48;103386.69;;;6.64;100.00
7052;BME280;3567;52.444;13.556;2023-02-13T08:02:14;103382.06;;;6.66;100.00
7052;BME280;3567;52.444;13.556;2023-02-13T08:04:40;103390.75;;;6.68;100.00
7052;BME280;3567;52.444;13.556;2023-02-13T08:07:10;103389.78;;;6.69;100.00
7052;BME280;3567;52.444;13.556;2023-02-13T08:09:35;103393.84;;;6.73;100.00
7052;BME280;3567;52.444;13.556;2023-02-13T08:12:20;103393.69;;;6.75;100.00
7052;BME280;3567;52.444;13.556;2023-02-13T08:14:45;103387.38;;;6.76;100.00
7052;BME280;3567;52.444;13.556;2023-02-13T08:17:10;103388.94;;;6.78;100.00
7052;BME280;3567;52.444;13.556;2023-02-13T08:19:36;103388.66;;;6.81;100.00
7052;BME280;3567;52.444;13.556;2023-02-13T08:22:01;103389.38;;;6.83;100.00
7052;BME280;3567;52.444;13.556;2023-02-13T08:24:27;103392.72;;;6.86;100.00
7052;BME280;3567;52.444;13.556;2023-02-13T08:26:52;103395.28;;;6.87;100.00
7052;BME280;3567;52.444;13.556;2023-02-13T08:29:17;103390.78;;;6.88;100.00
7052;BME280;3567;52.444;13.556;2023-02-13T08:31:43;103391.34;;;6.91;100.00
7052;BME280;3567;52.444;13.556;2023-02-13T08:34:08;103387.69;;;6.92;100.00
7052;BME280;3567;52.444;13.556;2023-02-13T08:36:35;103392.06;;;6.93;100.00
7052;BME280;3567;52.444;13.556;2023-02-13T08:39:01;103391.91;;;6.95;100.00
7052;BME280;3567;52.444;13.556;2023-02-13T08:41:26;103394.31;;;6.98;100.00
7052;BME280;3567;52.444;13.556;2023-02-13T08:43:52;103388.81;;;6.99;100.00
7052;BME280;3567;52.444;13.556;2023-02-13T08:46:18;103388.53;;;7.02;100.00
7052;BME280;3567;52.444;13.556;2023-02-13T08:48:44;103397.09;;;7.06;100.00
7052;BME280;3567;52.444;13.556;2023-02-13T08:51:11;103385.19;;;7.10;100.00
7052;BME280;3567;52.444;13.556;2023-02-13T08:53:36;103398.22;;;7.13;100.00
7052;BME280;3567;52.444;13.556;2023-02-13T08:56:03;103389.94;;;7.16;100.00
7052;BME280;3567;52.444;13.556;2023-02-13T08:58:29;103384.34;;;7.19;100.00
7052;BME280;3567;52.444;13.556;2023-02-13T09:00:54;103387.84;;;7.20;100.00
7052;BME280;3567;52.444;13.556;2023-02-13T09:03:19;103393.88;;;7.22;100.00
7052;BME280;3567;52.444;13.556;2023-02-13T09:05:45;103392.72;;;7.24;100.00
7052;BME280;3567;52.444;13.556;2023-02-13T09:08:12;103399.78;;;7.25;100.00
7052;BME280;3567;52.444;13.556;2023-02-13T09:10:38;103402.28;;;7.27;100.00
7052;BME280;3567;52.444;13.556;2023-02-13T09:13:04;103395.13;;;7.27;100.00
7052;BME280;3567;52.444;13.556;2023-02-13T09:15:30;103393.31;;;7.28;100.00
7052;BME280;3567;52.444;13.556;2023-02-13T09:17:56;103392.19;;;7.30;100.00
7052;BME280;3567;52.444;13.556;2023-02-13T09:20:22;103402.84;;;7.30;100.00
7052;BME280;3567;52.444;13.556;2023-02-13T09:22:47;103404.53;;;7.31;100.00
7052;BME280;3567;52.444;13.556;2023-02-13T09:25:12;103406.38;;;7.31;100.00
7052;BME280;3567;52.444;13.556;2023-02-13T09:27:38;103408.19;;;7.30;100.00
7052;BME280;3567;52.444;13.556;2023-02-13T09:30:07;103403.69;;;7.31;100.00
7052;BME280;3567;52.444;13.556;2023-02-13T09:32:34;103415.19;;;7.31;100.00
7052;BME280;3567;52.444;13.556;2023-02-13T09:34:59;103410.69;;;7.32;100.00
7052;BME280;3567;52.444;13.556;2023-02-13T09:37:25;103408.88;;;7.32;100.00
7052;BME280;3567;52.444;13.556;2023-02-13T09:39:51;103408.72;;;7.34;100.00
7052;BME280;3567;52.444;13.556;2023-02-13T09:42:31;103409.16;;;7.39;100.00
7052;BME280;3567;52.444;13.556;2023-02-13T09:45:03;103409.88;;;7.41;100.00
7052;BME280;3567;52.444;13.556;2023-02-13T09:47:33;103409.72;;;7.43;100.00
7052;BME280;3567;52.444;13.556;2023-02-13T09:52:48;103405.91;;;7.45;100.00
7052;BME280;3567;52.444;13.556;2023-02-13T09:55:16;103402.81;;;7.50;100.00
7052;BME280;3567;52.444;13.556;2023-02-13T09:57:58;103397.78;;;7.47;100.00
7052;BME280;3567;52.444;13.556;2023-02-13T10:00:41;103395.13;;;7.47;100.00
7052;BME280;3567;52.444;13.556;2023-02-13T10:08:57;103398.47;;;7.49;100.00
7052;BME280;3567;52.444;13.556;2023-02-13T10:14:30;103408.44;;;7.56;100.00
7052;BME280;3567;52.444;13.556;2023-02-13T10:17:01;103403.09;;;7.56;100.00
7052;BME280;3567;52.444;13.556;2023-02-13T10:22:14;103398.03;;;7.53;100.00
7052;BME280;3567;52.444;13.556;2023-02-13T10:32:18;103399.31;;;7.40;100.00
7052;BME280;3567;52.444;13.556;2023-02-13T10:34:46;103397.63;;;7.39;100.00
7052;BME280;3567;52.444;13.556;2023-02-13T10:37:15;103396.38;;;7.43;100.00
7052;BME280;3567;52.444;13.556;2023-02-13T10:39:48;103391.59;;;7.46;100.00
7052;BME280;3567;52.444;13.556;2023-02-13T10:42:20;103397.88;;;7.55;100.00
7052;BME280;3567;52.444;13.556;2023-02-13T10:45:05;103389.03;;;7.64;100.00
7052;BME280;3567;52.444;13.556;2023-02-13T10:47:44;103386.09;;;7.67;100.00
7052;BME280;3567;52.444;13.556;2023-02-13T10:50:47;103381.72;;;7.66;100.00
7052;BME280;3567;52.444;13.556;2023-02-13T10:56:16;103377.13;;;7.58;100.00
7052;BME280;3567;52.444;13.556;2023-02-13T10:59:04;103365.03;;;7.54;100.00
7052;BME280;3567;52.444;13.556;2023-02-13T11:01:52;103374.88;;;7.54;100.00
7052;BME280;3567;52.444;13.556;2023-02-13T11:04:20;103369.69;;;7.52;100.00
7052;BME280;3567;52.444;13.556;2023-02-13T11:06:54;103366.03;;;7.53;100.00
7052;BME280;3567;52.444;13.556;2023-02-13T11:09:20;103363.94;;;7.57;100.00
7052;BME280;3567;52.444;13.556;2023-02-13T11:11:46;103362.09;;;7.57;100.00
7052;BME280;3567;52.444;13.556;2023-02-13T11:16:56;103357.03;;;7.54;100.00
7052;BME280;3567;52.444;13.556;2023-02-13T11:19:39;103354.81;;;7.50;100.00
7052;BME280;3567;52.444;13.556;2023-02-13T11:22:12;103358.78;;;7.46;100.00
7052;BME280;3567;52.444;13.556;2023-02-13T11:24:50;103352.72;;;7.44;100.00
7052;BME280;3567;52.444;13.556;2023-02-13T11:27:43;103364.38;;;7.43;100.00
7052;BME280;3567;52.444;13.556;2023-02-13T11:32:59;103349.22;;;7.43;100.00
7052;BME280;3567;52.444;13.556;2023-02-13T11:35:28;103344.88;;;7.42;100.00
7052;BME280;3567;52.444;13.556;2023-02-13T11:38:31;103349.91;;;7.45;100.00
7052;BME280;3567;52.444;13.556;2023-02-13T11:41:12;103356.22;;;7.44;100.00
7052;BME280;3567;52.444;13.556;2023-02-13T11:43:49;103355.09;;;7.47;100.00
7052;BME280;3567;52.444;13.556;2023-02-13T11:46:21;103356.22;;;7.54;100.00
7052;BME280;3567;52.444;13.556;2023-02-13T11:49:00;103354.63;;;7.61;100.00
7052;BME280;3567;52.444;13.556;2023-02-13T11:51:44;103342.41;;;7.68;100.00
7052;BME280;3567;52.444;13.556;2023-02-13T11:57:00;103340.25;;;7.81;100.00
7052;BME280;3567;52.444;13.556;2023-02-13T11:59:29;103337.47;;;7.83;100.00
7052;BME280;3567;52.444;13.556;2023-02-13T12:02:23;103335.16;;;7.88;100.00
7052;BME280;3567;52.444;13.556;2023-02-13T12:04:51;103334.03;;;7.91;100.00
7052;BME280;3567;52.444;13.556;2023-02-13T12:07:30;103334.72;;;7.93;100.00
7052;BME280;3567;52.444;13.556;2023-02-13T12:10:07;103330.38;;;7.92;100.00
7052;BME280;3567;52.444;13.556;2023-02-13T12:12:45;103334.72;;;7.93;100.00
7052;BME280;3567;52.444;13.556;2023-02-13T12:15:18;103335.88;;;7.90;100.00
7052;BME280;3567;52.444;13.556;2023-02-13T12:17:46;103338.81;;;7.87;100.00
7052;BME280;3567;52.444;13.556;2023-02-13T12:20:15;103346.00;;;7.86;100.00
7052;BME280;3567;52.444;13.556;2023-02-13T12:36:20;103338.38;;;7.92;100.00
7052;BME280;3567;52.444;13.556;2023-02-13T12:41:41;103328.78;;;7.99;100.00
7052;BME280;3567;52.444;13.556;2023-02-13T12:44:32;103344.69;;;8.00;100.00
7052;BME280;3567;52.444;13.556;2023-02-13T12:55:26;103327.06;;;8.07;99.87
7052;BME280;3567;52.444;13.556;2023-02-13T13:00:43;103322.28;;;8.11;99.30
7052;BME280;3567;52.444;13.556;2023-02-13T13:03:32;103323.97;;;8.12;98.63
7052;BME280;3567;52.444;13.556;2023-02-13T13:06:15;103321.28;;;8.12;98.79
7052;BME280;3567;52.444;13.556;2023-02-13T13:14:34;103326.50;;;8.04;97.40
7052;BME280;3567;52.444;13.556;2023-02-13T13:17:22;103330.19;;;8.03;97.33
7052;BME280;3567;52.444;13.556;2023-02-13T13:22:54;103338.19;;;8.03;97.82
7052;BME280;3567;52.444;13.556;2023-02-13T13:30:41;103327.38;;;8.04;97.21
7052;BME280;3567;52.444;13.556;2023-02-13T13:33:15;103329.75;;;8.07;98.11
7052;BME280;3567;52.444;13.556;2023-02-13T13:35:54;103330.41;;;8.09;97.43
7052;BME280;3567;52.444;13.556;2023-02-13T13:44:18;103338.91;;;8.05;97.36
7052;BME280;3567;52.444;13.556;2023-02-13T13:46:57;103333.56;;;8.05;97.13
7052;BME280;3567;52.444;13.556;2023-02-13T13:49:56;103335.50;;;8.03;96.52
7052;BME280;3567;52.444;13.556;2023-02-13T13:52:32;103326.44;;;7.96;96.19
7052;BME280;3567;52.444;13.556;2023-02-13T13:55:00;103322.91;;;7.95;96.27
7052;BME280;3567;52.444;13.556;2023-02-13T14:00:01;103312.41;;;7.94;96.31
7052;BME280;3567;52.444;13.556;2023-02-13T14:03:53;103318.19;;;7.89;97.23
7052;BME280;3567;52.444;13.556;2023-02-13T14:05:59;103310.31;;;7.87;97.15
7052;BME280;3567;52.444;13.556;2023-02-13T14:13:52;103303.59;;;7.83;96.86
7052;BME280;3567;52.444;13.556;2023-02-13T14:19:02;103302.50;;;7.76;97.38
7052;BME280;3567;52.444;13.556;2023-02-13T14:21:28;103297.31;;;7.75;97.32
7052;BME280;3567;52.444;13.556;2023-02-13T14:23:54;103297.47;;;7.73;97.21
7052;BME280;3567;52.444;13.556;2023-02-13T14:26:31;103288.75;;;7.71;97.62
7052;BME280;3567;52.444;13.556;2023-02-13T14:31:36;103284.31;;;7.62;97.42
7052;BME280;3567;52.444;13.556;2023-02-13T14:36:42;103275.19;;;7.55;97.06
7052;BME280;3567;52.444;13.556;2023-02-13T14:39:32;103286.84;;;7.54;97.92
7052;BME280;3567;52.444;13.556;2023-02-13T14:42:26;103287.84;;;7.53;97.72
7052;BME280;3567;52.444;13.556;2023-02-13T14:44:55;103276.34;;;7.52;98.01
7052;BME280;3567;52.444;13.556;2023-02-13T14:47:29;103266.66;;;7.51;97.85
7052;BME280;3567;52.444;13.556;2023-02-13T14:49:57;103272.84;;;7.52;97.99
7052;BME280;3567;52.444;13.556;2023-02-13T14:52:37;103270.19;;;7.52;98.54
7052;BME280;3567;52.444;13.556;2023-02-13T14:55:12;103273.81;;;7.51;98.27
7052;BME280;3567;52.444;13.556;2023-02-13T14:57:47;103269.47;;;7.50;98.68
7052;BME280;3567;52.444;13.556;2023-02-13T15:00:27;103259.78;;;7.49;98.40
7052;BME280;3567;52.444;13.556;2023-02-13T15:03:18;103271.44;;;7.48;98.49
7052;BME280;3567;52.444;13.556;2023-02-13T15:05:50;103266.25;;;7.46;97.39
7052;BME280;3567;52.444;13.556;2023-02-13T15:08:20;103266.38;;;7.45;98.58
7052;BME280;3567;52.444;13.556;2023-02-13T15:10:49;103263.03;;;7.43;98.63
7052;BME280;3567;52.444;13.556;2023-02-13T15:13:21;103265.88;;;7.41;97.86
7052;BME280;3567;52.444;13.556;2023-02-13T15:15:55;103268.53;;;7.41;98.42
7052;BME280;3567;52.444;13.556;2023-02-13T15:18:29;103249.97;;;7.40;98.52
7052;BME280;3567;52.444;13.556;2023-02-13T15:20:56;103247.78;;;7.35;97.90
7052;BME280;3567;52.444;13.556;2023-02-13T15:23:33;103244.25;;;7.34;97.69
7052;BME280;3567;52.444;13.556;2023-02-13T15:25:59;103239.78;;;7.35;97.30
7052;BME280;3567;52.444;13.556;2023-02-13T15:28:27;103246.22;;;7.32;96.56
7052;BME280;3567;52.444;13.556;2023-02-13T15:33:47;103244.56;;;7.31;96.33
7052;BME280;3567;52.444;13.556;2023-02-13T15:36:23;103235.00;;;7.29;96.31
7052;BME280;3567;52.444;13.556;2023-02-13T15:39:02;103235.00;;;7.29;97.24
7052;BME280;3567;52.444;13.556;2023-02-13T15:41:34;103229.16;;;7.25;96.50
7052;BME280;3567;52.444;13.556;2023-02-13T15:44:02;103233.50;;;7.26;97.04
7052;BME280;3567;52.444;13.556;2023-02-13T15:46:30;103232.78;;;7.24;97.53